Waskaganish Airport
CYKQ : now visible

Airfield :











YOU CAN JOIN US ON...

 
LOGIN :

Register | Disclaimer

   EN    FR    IT 

 









Legend :    VFR   Marginal VFR   IFR   Intensive IFR   Very Intensive IFR
Visi :
Ceiling :
>= 8 km
>= 3000ft
5 to 8 km
1000 to 3000 ft
1500m to 5 km
500 to 1000 ft
800 to 1500m
200 to 500 ft
< 800m
< 200 ft
Symbols :   Thunderstorms  Fog  Heavy snow  Heavy precipitations  Wind > 20 kt






- Airport Elevation : 80 ft
- IATA code : YKQ


CYKQ - Waskaganish

CURRENT METAR :
  • 122100Z 17004KT 15SM FEW019 FEW024 SCT200 M23/M26 A3040 RMK SF1SC1CI2 SF TR SLP299

EXPIRED METARs :
  • 122000Z 20007KT 15SM FEW019 FEW200 M22/M26 A3039 RMK SF1CI2 SF TR SLP296
  • 121900Z 23012KT 15SM FEW019 SCT200 M22/M26 A3039 RMK SF1CI2 SLP296

TAF TAF CYKQ
Valid from the 12 at 16:00 until the 12 at 22:00 UTC


121539Z 1216/1222 21010KT P6SM FEW080 SCT200 RMK NXT FCST WILL BE ISSUED AT 131545Z



MET'MAP, your aeronautical weather chart ! - Copyright ORBIFLY December 2007 - Disclaimer

ORBIFLY MET'MAP TEAM :

Programming & Development : Alexandra Zaïnal
Concept & original design : Baudouin d'Aumeries
Assistance for programming : Marc-Olivier Méhu
Technical & hardware support : Manuel Goepfert

Contact : metmap@orbifly.com




SOURCES & CREDITS :

   NOAA       Earth
Advisory